Terminal Aerodrome Forecast
Issued by NWS

Home | Current Version | Previous Version | Text Only | Print | Product List | Glossary On
Versions: 1 2 3 4 5 6 7 8 9 10 11 12 13 14 15 16 17 18 19 20 21 22 23 24 25 26 27 28 29 30 31 32 33 34 35 36 37 38 39 40 41 42 43 44 45 46
000
FTUS45 KCYS 240536
TAFAIA
TAF
KAIA 240536Z 2406/2506 11013KT 5SM BR OVC005
      TEMPO 2406/2409 2SM RA BR OVC003
     FM240900 11008KT 2SM -DZ BR OVC003
     FM241500 12008KT 5SM BR BKN003 OVC007
     FM241700 12010KT P6SM -SHRA VCTS BKN015 BKN025CB=

USA.gov is the U.S. government's official web portal to all federal, state and local government web resources and services.